createdAt,value
2022-12-19T00:01:37.803Z,97.20
2022-12-19T00:04:09.090Z,97.10
2022-12-19T00:06:41.391Z,97.00
2022-12-19T00:09:12.834Z,97.10
2022-12-19T00:11:40.899Z,97.00
2022-12-19T00:14:11.383Z,96.90
2022-12-19T00:16:38.487Z,97.00
2022-12-19T00:19:05.685Z,97.00
2022-12-19T00:21:35.157Z,97.10
2022-12-19T00:24:11.240Z,97.20
2022-12-19T00:26:49.804Z,97.40
2022-12-19T00:29:17.025Z,97.50
2022-12-19T00:31:45.581Z,97.50
2022-12-19T00:34:14.920Z,97.60
2022-12-19T00:36:41.887Z,97.60
2022-12-19T00:39:10.347Z,97.60
2022-12-19T00:41:41.808Z,97.70
2022-12-19T00:44:15.495Z,97.70
2022-12-19T00:46:42.765Z,97.60
2022-12-19T00:49:13.990Z,97.70
2022-12-19T00:51:41.145Z,97.60
2022-12-19T00:54:10.056Z,97.60
2022-12-19T00:56:38.511Z,97.70
2022-12-19T00:59:07.678Z,97.70
2022-12-19T01:01:37.681Z,97.70
2022-12-19T01:06:54.641Z,97.70
2022-12-19T01:09:32.205Z,97.80
2022-12-19T01:12:17.836Z,97.80
2022-12-19T01:14:44.950Z,97.80
2022-12-19T01:17:12.304Z,97.80
2022-12-19T01:19:44.113Z,97.80
2022-12-19T01:22:13.298Z,97.80
2022-12-19T01:24:40.645Z,97.80
2022-12-19T01:27:07.913Z,97.90
2022-12-19T01:29:37.638Z,97.90
2022-12-19T01:32:18.836Z,97.90
2022-12-19T01:34:45.826Z,97.90
2022-12-19T01:37:12.822Z,97.90
2022-12-19T01:39:39.809Z,97.90
2022-12-19T01:42:23.581Z,97.90
2022-12-19T01:45:13.403Z,97.90
2022-12-19T01:47:53.624Z,97.90
2022-12-19T01:50:33.527Z,97.90
2022-12-19T01:53:01.938Z,97.80
2022-12-19T01:55:30.650Z,97.90
2022-12-19T01:57:59.193Z,97.90
2022-12-19T02:00:26.340Z,97.90
2022-12-19T02:03:02.966Z,97.90
2022-12-19T02:05:31.322Z,97.90
2022-12-19T02:08:00.232Z,97.90
2022-12-19T02:10:27.373Z,97.90
2022-12-19T02:12:55.137Z,97.90
2022-12-19T02:15:22.533Z,97.90
2022-12-19T02:18:10.955Z,98.00
2022-12-19T02:21:04.761Z,98.00
2022-12-19T02:23:51.437Z,98.00
2022-12-19T02:26:46.177Z,98.00
2022-12-19T02:29:35.166Z,98.00
2022-12-19T02:32:16.988Z,98.00
2022-12-19T02:35:03.767Z,98.00
2022-12-19T02:37:45.393Z,98.00
2022-12-19T02:40:20.370Z,98.00
2022-12-19T02:42:54.683Z,98.00
2022-12-19T02:45:28.855Z,98.00
2022-12-19T02:48:03.330Z,98.00
2022-12-19T02:50:42.253Z,98.00
2022-12-19T02:53:12.500Z,98.00
2022-12-19T02:55:52.975Z,98.00
2022-12-19T02:58:57.727Z,98.00
2022-12-19T03:01:38.417Z,98.00
2022-12-19T03:04:21.119Z,98.00
2022-12-19T03:07:01.844Z,98.00
2022-12-19T03:09:43.645Z,97.90
2022-12-19T03:12:18.821Z,98.00
2022-12-19T03:14:47.562Z,98.00
2022-12-19T03:17:14.809Z,98.00
2022-12-19T03:19:42.219Z,98.00
2022-12-19T03:22:09.310Z,98.00
2022-12-19T03:24:36.391Z,98.00
2022-12-19T03:27:14.412Z,98.10
2022-12-19T03:29:56.315Z,98.10
2022-12-19T03:32:24.640Z,98.10
2022-12-19T03:35:07.231Z,98.10
2022-12-19T03:37:37.850Z,98.10
2022-12-19T03:40:15.864Z,98.20
2022-12-19T03:43:03.765Z,98.10
2022-12-19T03:45:40.250Z,98.10
2022-12-19T03:48:11.669Z,98.10
2022-12-19T03:51:09.129Z,98.10
2022-12-19T03:53:48.003Z,98.10
2022-12-19T03:56:22.808Z,98.10
2022-12-19T03:58:57.851Z,98.10
2022-12-19T04:01:27.759Z,98.10
2022-12-19T04:03:56.784Z,98.10
2022-12-19T04:06:24.016Z,98.10
2022-12-19T04:08:51.391Z,98.10
2022-12-19T04:11:20.692Z,98.10
2022-12-19T04:13:58.973Z,98.10
2022-12-19T04:16:46.501Z,98.00
2022-12-19T04:19:30.294Z,98.00
2022-12-19T04:22:06.673Z,98.00
2022-12-19T04:24:37.485Z,98.00
2022-12-19T04:27:06.740Z,98.00
2022-12-19T04:29:37.444Z,98.00
2022-12-19T04:32:06.647Z,98.10
2022-12-19T04:34:33.745Z,98.00
2022-12-19T04:37:00.786Z,98.00
2022-12-19T04:39:28.418Z,98.00
2022-12-19T04:41:55.396Z,98.00
2022-12-19T04:44:22.416Z,98.00
2022-12-19T04:46:49.526Z,98.00
2022-12-19T04:49:16.612Z,98.00
2022-12-19T04:51:43.611Z,98.00
2022-12-19T04:54:10.586Z,97.90
2022-12-19T04:56:37.585Z,97.90
2022-12-19T04:59:04.590Z,98.10
2022-12-19T05:01:31.794Z,97.80
2022-12-19T05:04:04.251Z,97.70
2022-12-19T05:06:31.988Z,97.70
2022-12-19T05:08:59.002Z,97.80
2022-12-19T05:11:26.086Z,97.80
2022-12-19T05:13:53.169Z,97.80
2022-12-19T05:16:20.210Z,97.80
2022-12-19T05:18:47.268Z,97.90
2022-12-19T05:21:14.584Z,97.90
2022-12-19T05:23:41.635Z,97.90
2022-12-19T05:26:11.068Z,97.80
2022-12-19T05:28:38.110Z,97.80
2022-12-19T05:31:17.241Z,97.80
2022-12-19T05:33:44.783Z,97.80
2022-12-19T05:36:13.336Z,97.70
2022-12-19T05:38:40.441Z,97.70
2022-12-19T05:41:16.299Z,97.70
2022-12-19T05:43:44.862Z,97.60
2022-12-19T05:46:12.383Z,97.60
2022-12-19T05:48:39.463Z,97.60
2022-12-19T05:51:06.548Z,97.60
2022-12-19T05:53:36.792Z,97.60
2022-12-19T05:56:09.218Z,97.60
2022-12-19T05:58:38.431Z,97.70
2022-12-19T06:01:12.095Z,97.80
2022-12-19T06:03:39.457Z,97.90
2022-12-19T06:06:10.841Z,98.00
2022-12-19T06:08:38.096Z,98.00
2022-12-19T06:11:07.417Z,98.00
2022-12-19T06:13:35.620Z,98.00
2022-12-19T06:16:06.981Z,97.90
2022-12-19T06:18:34.317Z,97.90
2022-12-19T06:21:04.683Z,98.00
2022-12-19T06:23:33.436Z,98.10
2022-12-19T06:26:01.421Z,98.10
2022-12-19T06:28:29.901Z,98.10
2022-12-19T06:30:58.019Z,98.10
2022-12-19T06:33:25.859Z,98.10
2022-12-19T06:36:06.527Z,98.10
2022-12-19T06:38:34.869Z,98.10
2022-12-19T06:41:22.420Z,98.10
2022-12-19T06:43:53.428Z,98.10
2022-12-19T06:46:21.524Z,98.00
2022-12-19T06:48:48.510Z,98.00
2022-12-19T06:51:15.692Z,98.00
2022-12-19T06:53:42.674Z,98.00
2022-12-19T06:56:11.093Z,98.10
2022-12-19T06:58:38.285Z,98.10
2022-12-19T07:01:05.841Z,98.20
2022-12-19T07:03:38.660Z,98.30
2022-12-19T07:06:06.847Z,98.30
2022-12-19T07:08:33.977Z,98.30
2022-12-19T07:11:01.038Z,98.50
2022-12-19T07:13:28.282Z,98.50
2022-12-19T07:16:00.031Z,98.50
2022-12-19T07:18:28.809Z,98.60
2022-12-19T07:20:56.825Z,98.70
2022-12-19T07:23:24.377Z,98.90
2022-12-19T07:25:51.409Z,98.90
2022-12-19T07:28:18.858Z,98.90
2022-12-19T07:30:45.901Z,98.90
2022-12-19T07:33:18.296Z,99.00
2022-12-19T07:35:48.365Z,98.90
2022-12-19T07:38:15.363Z,98.80
2022-12-19T07:40:42.428Z,98.80
2022-12-19T07:43:09.732Z,98.90
2022-12-19T07:45:38.611Z,98.90
2022-12-19T07:48:06.939Z,98.90
2022-12-19T07:50:34.672Z,98.90
2022-12-19T07:53:01.997Z,98.90
2022-12-19T07:55:29.429Z,98.90
2022-12-19T07:57:56.467Z,98.90
2022-12-19T08:00:23.533Z,98.90
2022-12-19T08:02:50.815Z,98.80
2022-12-19T08:05:17.991Z,98.70
2022-12-19T08:07:45.184Z,98.80
2022-12-19T08:10:14.674Z,98.80
2022-12-19T08:12:41.899Z,98.70
2022-12-19T08:15:09.276Z,98.70
2022-12-19T08:17:40.953Z,98.70
2022-12-19T08:20:09.731Z,98.60
2022-12-19T08:22:36.927Z,98.60
2022-12-19T08:25:04.383Z,98.60
2022-12-19T08:27:31.383Z,98.60
2022-12-19T08:29:58.432Z,98.60
2022-12-19T08:32:25.441Z,98.50
2022-12-19T08:34:52.554Z,98.40
2022-12-19T08:37:19.487Z,98.40
2022-12-19T08:39:46.564Z,98.40
2022-12-19T08:42:13.614Z,98.20
2022-12-19T08:44:40.711Z,97.90
2022-12-19T08:47:07.718Z,97.90
2022-12-19T08:49:34.786Z,98.00
2022-12-19T08:52:01.824Z,98.10
2022-12-19T08:54:28.879Z,98.10
2022-12-19T08:56:55.842Z,98.10
2022-12-19T08:59:30.261Z,98.00
2022-12-19T09:02:00.837Z,97.90
2022-12-19T09:05:52.832Z,97.90
2022-12-19T09:07:16.492Z,98.00
2022-12-19T09:09:47.184Z,97.90
2022-12-19T09:12:15.542Z,97.80
2022-12-19T09:14:44.262Z,97.80
2022-12-19T09:17:11.477Z,97.90
2022-12-19T09:19:38.661Z,98.00
2022-12-19T09:22:06.944Z,98.00
2022-12-19T09:24:33.978Z,98.00
2022-12-19T09:27:01.036Z,98.00
2022-12-19T09:29:32.191Z,97.90
2022-12-19T09:32:02.271Z,97.90
2022-12-19T09:34:37.853Z,97.90
2022-12-19T09:37:07.929Z,97.90
2022-12-19T09:39:36.297Z,97.90
2022-12-19T09:42:41.697Z,97.80
2022-12-19T09:45:31.540Z,97.70
2022-12-19T09:48:00.238Z,97.70
2022-12-19T09:50:51.831Z,97.70
2022-12-19T09:53:33.502Z,97.60
2022-12-19T09:56:02.867Z,97.60
2022-12-19T09:58:42.476Z,97.50
2022-12-19T10:01:36.563Z,97.40
2022-12-19T10:04:10.980Z,97.30
2022-12-19T10:07:16.374Z,97.40
2022-12-19T10:12:37.444Z,97.40
2022-12-19T10:12:44.610Z,97.50
2022-12-19T10:15:57.311Z,97.50
2022-12-19T10:18:52.685Z,97.40
2022-12-19T10:21:42.883Z,97.40
2022-12-19T10:24:38.289Z,97.30
2022-12-19T10:27:28.978Z,97.30
2022-12-19T10:30:17.317Z,97.30
2022-12-19T10:33:07.816Z,97.20
2022-12-19T10:35:44.637Z,96.90
2022-12-19T10:38:21.348Z,96.90
2022-12-19T10:41:04.172Z,96.90
2022-12-19T10:44:09.560Z,96.90
2022-12-19T10:46:39.923Z,97.00
2022-12-19T10:49:13.246Z,97.00
2022-12-19T10:51:40.979Z,96.90
2022-12-19T10:54:08.123Z,96.80
2022-12-19T10:56:37.944Z,96.80
2022-12-19T10:59:18.806Z,96.80
2022-12-19T11:02:00.339Z,96.90
2022-12-19T11:04:33.102Z,96.80
2022-12-19T11:07:03.143Z,96.70
2022-12-19T11:09:40.797Z,96.70
2022-12-19T11:16:25.178Z,96.60
2022-12-19T11:19:49.146Z,96.60
2022-12-19T11:29:25.674Z,96.70
2022-12-19T11:29:32.146Z,96.20
2022-12-19T11:29:44.433Z,96.60
2022-12-19T11:30:46.256Z,96.20
2022-12-19T11:32:41.091Z,96.00
2022-12-19T11:35:18.370Z,96.00
2022-12-19T11:37:57.194Z,96.20
2022-12-19T11:40:49.001Z,96.20
2022-12-19T11:43:47.079Z,96.30
2022-12-19T11:47:06.189Z,96.30
2022-12-19T11:49:37.326Z,96.20
2022-12-19T11:56:03.657Z,96.20
2022-12-19T11:58:30.911Z,96.50
2022-12-19T12:01:06.736Z,96.20
2022-12-19T12:03:39.641Z,96.20
2022-12-19T12:06:17.697Z,96.20
2022-12-19T12:13:36.934Z,96.10
2022-12-19T12:22:43.746Z,96.10
2022-12-19T12:24:04.584Z,96.10
2022-12-19T12:31:05.880Z,95.70
2022-12-19T12:31:13.894Z,95.90
2022-12-19T12:31:47.725Z,95.50
2022-12-19T12:31:57.405Z,95.20
2022-12-19T12:35:30.457Z,95.10
2022-12-19T12:40:44.221Z,95.20
2022-12-19T12:43:35.105Z,95.20
2022-12-19T12:46:08.699Z,95.10
2022-12-19T12:49:01.260Z,95.10
2022-12-19T12:51:29.140Z,95.00
2022-12-19T12:54:05.150Z,94.60
2022-12-19T12:56:32.652Z,94.60
2022-12-19T12:59:06.708Z,94.60
2022-12-19T13:01:38.827Z,94.70
2022-12-19T13:04:11.839Z,94.80
2022-12-19T13:06:41.557Z,94.80
2022-12-19T13:09:08.586Z,94.70
2022-12-19T13:12:07.514Z,94.70
2022-12-19T13:14:34.453Z,94.60
2022-12-19T13:17:12.710Z,94.50
2022-12-19T13:19:56.808Z,94.00
2022-12-19T13:22:39.825Z,94.00
2022-12-19T13:25:34.882Z,93.90
2022-12-19T13:28:01.958Z,94.00
2022-12-19T13:30:30.845Z,94.10
2022-12-19T13:33:00.585Z,94.10
2022-12-19T13:36:49.979Z,94.30
2022-12-19T13:39:51.497Z,94.30
2022-12-19T13:41:46.413Z,94.20
2022-12-19T13:44:14.008Z,93.70
2022-12-19T13:46:45.816Z,93.50
2022-12-19T13:49:22.534Z,93.50
2022-12-19T13:51:57.528Z,93.60
2022-12-19T13:54:32.998Z,93.70
2022-12-19T13:57:08.048Z,93.70
2022-12-19T13:59:40.078Z,93.70
2022-12-19T14:02:16.859Z,93.70
2022-12-19T14:04:45.576Z,93.70
2022-12-19T14:07:38.090Z,93.50
2022-12-19T14:11:37.764Z,93.50
2022-12-19T14:13:52.487Z,93.60
2022-12-19T14:16:16.912Z,93.60
2022-12-19T14:18:49.968Z,93.70
2022-12-19T14:22:07.899Z,93.70
2022-12-19T14:24:23.292Z,93.60
2022-12-19T14:28:19.826Z,93.50
2022-12-19T14:30:30.130Z,93.30
2022-12-19T14:33:44.254Z,93.30
2022-12-19T14:36:07.954Z,93.10
2022-12-19T14:39:24.814Z,93.10
2022-12-19T14:41:46.773Z,93.20
2022-12-19T14:52:34.559Z,93.20
2022-12-19T14:52:44.921Z,93.20
2022-12-19T14:54:03.318Z,93.30
2022-12-19T14:54:40.346Z,93.30
2022-12-19T14:56:08.288Z,93.30
2022-12-19T14:58:56.240Z,93.30
2022-12-19T15:01:26.596Z,93.40
2022-12-19T15:04:52.316Z,93.40
2022-12-19T15:07:23.599Z,93.50
2022-12-19T15:11:04.819Z,93.50
2022-12-19T15:14:46.505Z,93.50
2022-12-19T15:16:31.100Z,93.50
2022-12-19T15:19:01.211Z,93.60
2022-12-19T15:21:29.976Z,93.60
2022-12-19T15:23:57.147Z,93.70
2022-12-19T15:26:35.162Z,93.70
2022-12-19T15:29:07.247Z,93.80
2022-12-19T15:31:40.552Z,93.80
2022-12-19T15:36:58.508Z,93.90
2022-12-19T15:39:29.478Z,93.90
2022-12-19T15:41:59.459Z,94.00
2022-12-19T15:44:36.880Z,94.10
2022-12-19T15:47:18.231Z,94.10
2022-12-19T15:49:46.148Z,94.10
2022-12-19T15:52:21.387Z,94.20
2022-12-19T15:54:50.392Z,94.20
2022-12-19T15:57:30.892Z,94.30
2022-12-19T16:00:01.385Z,94.40
2022-12-19T16:03:12.809Z,94.40
2022-12-19T16:05:21.978Z,94.40
2022-12-19T16:07:49.184Z,94.40
2022-12-19T16:10:16.836Z,94.40
2022-12-19T16:12:58.036Z,94.50
2022-12-19T16:15:30.883Z,94.50
2022-12-19T16:18:00.577Z,94.50
2022-12-19T16:20:39.543Z,94.60
2022-12-19T16:23:07.711Z,94.60
2022-12-19T16:25:41.311Z,94.60
2022-12-19T16:28:17.213Z,94.60
2022-12-19T16:30:44.738Z,94.70
2022-12-19T16:33:20.322Z,94.70
2022-12-19T16:36:04.219Z,94.70
2022-12-19T16:38:33.442Z,94.70
2022-12-19T16:41:01.684Z,94.60
2022-12-19T16:43:28.788Z,94.70
2022-12-19T16:46:00.719Z,94.80
2022-12-19T16:48:32.227Z,94.80
2022-12-19T16:50:59.805Z,94.80
2022-12-19T16:53:26.860Z,94.90
2022-12-19T16:55:56.311Z,94.90
2022-12-19T16:58:27.300Z,94.90
2022-12-19T17:00:55.912Z,94.90
2022-12-19T17:03:41.596Z,95.00
2022-12-19T17:06:13.861Z,95.00
2022-12-19T17:08:40.879Z,95.00
2022-12-19T17:11:23.284Z,94.90
2022-12-19T17:13:58.979Z,95.00
2022-12-19T17:16:26.052Z,95.00
2022-12-19T17:18:53.139Z,95.00
2022-12-19T17:21:22.012Z,95.00
2022-12-19T17:23:49.997Z,95.00
2022-12-19T17:26:18.456Z,95.10
2022-12-19T17:28:49.117Z,95.10
2022-12-19T17:31:28.450Z,95.20
2022-12-19T17:33:57.893Z,95.20
2022-12-19T17:36:32.664Z,95.20
2022-12-19T17:39:02.255Z,95.50
2022-12-19T17:41:29.333Z,95.20
2022-12-19T17:43:56.505Z,95.20
2022-12-19T17:46:24.551Z,95.20
2022-12-19T17:48:52.982Z,95.20
2022-12-19T17:51:23.213Z,95.20
2022-12-19T17:53:50.814Z,95.20
2022-12-19T17:56:20.456Z,95.20
2022-12-19T17:58:49.001Z,95.20
2022-12-19T18:01:21.500Z,95.20
2022-12-19T18:03:50.396Z,95.20
2022-12-19T18:06:17.699Z,95.20
2022-12-19T18:08:45.068Z,95.10
2022-12-19T18:11:22.955Z,95.10
2022-12-19T18:13:50.497Z,95.20
2022-12-19T18:16:22.919Z,95.20
2022-12-19T18:18:50.047Z,95.20
2022-12-19T18:21:22.396Z,95.20
2022-12-19T18:23:49.534Z,95.20
2022-12-19T18:26:17.110Z,95.20
2022-12-19T18:28:44.156Z,95.20
2022-12-19T18:31:25.570Z,95.10
2022-12-19T18:33:54.487Z,95.20
2022-12-19T18:36:24.920Z,95.10
2022-12-19T18:38:53.018Z,95.10
2022-12-19T18:41:21.380Z,95.10
2022-12-19T18:43:49.588Z,95.10
2022-12-19T18:46:26.046Z,95.10
2022-12-19T18:48:53.180Z,95.20
2022-12-19T18:51:23.250Z,95.10
2022-12-19T18:53:51.029Z,95.10
2022-12-19T18:56:18.039Z,95.10
2022-12-19T18:58:45.125Z,95.10
2022-12-19T19:01:15.761Z,95.10
2022-12-19T19:03:53.047Z,95.20
2022-12-19T19:06:28.989Z,95.20
2022-12-19T19:08:57.077Z,95.20
2022-12-19T19:11:42.641Z,95.30
2022-12-19T19:14:09.814Z,95.60
2022-12-19T19:16:37.612Z,95.30
2022-12-19T19:19:07.188Z,95.40
2022-12-19T19:21:35.713Z,95.40
2022-12-19T19:24:16.090Z,95.50
2022-12-19T19:26:43.183Z,95.50
2022-12-19T19:29:10.447Z,95.60
2022-12-19T19:31:40.915Z,95.60
2022-12-19T19:34:30.789Z,95.70
2022-12-19T19:37:00.530Z,95.70
2022-12-19T19:39:28.131Z,95.80
2022-12-19T19:41:56.407Z,95.80
2022-12-19T19:44:23.634Z,95.80
2022-12-19T19:46:50.840Z,95.80
2022-12-19T19:49:17.969Z,95.90
2022-12-19T19:51:44.980Z,95.90
2022-12-19T19:54:12.116Z,95.90
2022-12-19T19:56:39.628Z,96.00
2022-12-19T19:59:06.789Z,96.10
2022-12-19T20:01:34.015Z,96.00
2022-12-19T20:04:01.153Z,96.00
2022-12-19T20:06:28.257Z,96.10
2022-12-19T20:08:55.316Z,96.10
2022-12-19T20:11:22.371Z,96.10
2022-12-19T20:13:49.629Z,96.20
2022-12-19T20:16:18.952Z,96.20
2022-12-19T20:18:52.909Z,96.20
2022-12-19T20:21:20.510Z,96.10
2022-12-19T20:23:48.352Z,96.10
2022-12-19T20:26:16.673Z,96.20
2022-12-19T20:28:48.950Z,96.20
2022-12-19T20:31:22.222Z,96.20
2022-12-19T20:33:50.649Z,96.30
2022-12-19T20:36:18.073Z,96.30
2022-12-19T20:38:46.341Z,96.30
2022-12-19T20:41:13.876Z,96.30
2022-12-19T20:43:41.445Z,96.30
2022-12-19T20:46:16.716Z,96.40
2022-12-19T20:48:45.067Z,96.40
2022-12-19T20:51:13.172Z,96.40
2022-12-19T20:53:41.727Z,96.40
2022-12-19T20:56:13.879Z,96.40
2022-12-19T20:58:41.138Z,96.50
2022-12-19T21:01:11.302Z,96.50
2022-12-19T21:03:39.692Z,96.50
2022-12-19T21:06:08.424Z,96.50
2022-12-19T21:08:35.632Z,96.50
2022-12-19T21:11:05.362Z,96.50
2022-12-19T21:13:33.207Z,96.50
2022-12-19T21:16:03.194Z,96.50
2022-12-19T21:18:30.587Z,96.50
2022-12-19T21:20:59.408Z,96.50
2022-12-19T21:23:27.024Z,96.60
2022-12-19T21:26:00.406Z,96.60
2022-12-19T21:28:27.692Z,96.60
2022-12-19T21:31:04.174Z,96.60
2022-12-19T21:33:31.802Z,96.70
2022-12-19T21:36:05.921Z,96.60
2022-12-19T21:38:32.907Z,96.70
2022-12-19T21:41:06.359Z,96.60
2022-12-19T21:43:34.523Z,96.60
2022-12-19T21:46:09.979Z,96.40
2022-12-19T21:48:42.191Z,96.50
2022-12-19T21:51:10.290Z,96.60
2022-12-19T21:53:38.325Z,96.60
2022-12-19T21:56:34.952Z,96.70
2022-12-19T21:59:13.502Z,96.80
2022-12-19T22:01:41.736Z,96.80
2022-12-19T22:04:15.166Z,96.80
2022-12-19T22:06:42.372Z,96.80
2022-12-19T22:09:13.714Z,96.80
2022-12-19T22:11:41.303Z,96.80
2022-12-19T22:14:10.390Z,96.80
2022-12-19T22:16:37.378Z,96.80
2022-12-19T22:19:05.116Z,96.70
2022-12-19T22:21:32.839Z,96.80
2022-12-19T22:24:01.945Z,96.80
2022-12-19T22:26:30.831Z,96.80
2022-12-19T22:28:58.844Z,96.90
2022-12-19T22:31:33.592Z,96.90
2022-12-19T22:34:04.218Z,96.90
2022-12-19T22:36:33.419Z,96.80
2022-12-19T22:39:02.561Z,96.90
2022-12-19T22:41:29.743Z,97.00
2022-12-19T22:43:56.833Z,96.90
2022-12-19T22:46:29.983Z,96.90
2022-12-19T22:48:59.134Z,97.00
2022-12-19T22:51:27.269Z,97.00
2022-12-19T22:53:55.108Z,97.00
2022-12-19T22:56:24.797Z,97.00
2022-12-19T22:58:54.125Z,97.00
2022-12-19T23:01:29.579Z,97.00
2022-12-19T23:03:58.910Z,97.00
2022-12-19T23:06:27.813Z,97.00
2022-12-19T23:08:55.051Z,97.00
2022-12-19T23:11:29.850Z,96.90
2022-12-19T23:13:57.194Z,96.90
2022-12-19T23:16:24.507Z,97.00
2022-12-19T23:18:51.647Z,97.00
2022-12-19T23:21:21.092Z,97.00
2022-12-19T23:23:51.275Z,97.00
2022-12-19T23:26:33.940Z,97.10
2022-12-19T23:29:04.121Z,97.10
2022-12-19T23:31:31.827Z,97.10
2022-12-19T23:33:59.317Z,97.10
2022-12-19T23:37:08.510Z,97.10
2022-12-19T23:39:14.271Z,97.10
2022-12-19T23:41:41.568Z,97.10
2022-12-19T23:44:09.579Z,97.10
2022-12-19T23:46:37.489Z,97.10
2022-12-19T23:49:04.678Z,97.10
2022-12-19T23:51:32.219Z,97.20
2022-12-19T23:53:59.224Z,97.20
2022-12-19T23:56:29.518Z,97.20
2022-12-19T23:58:57.568Z,97.20
